sensor_id;sensor_type;location;lat;lon;timestamp;temperature;humidity
23755;DHT22;12057;52.042;6.830;2023-09-07T00:04:55;21.90;99.90
23755;DHT22;12057;52.042;6.830;2023-09-07T00:09:56;21.80;99.90
23755;DHT22;12057;52.042;6.830;2023-09-07T00:14:57;21.70;99.90
23755;DHT22;12057;52.042;6.830;2023-09-07T00:19:58;21.70;99.90
23755;DHT22;12057;52.042;6.830;2023-09-07T00:24:59;21.70;99.90
23755;DHT22;12057;52.042;6.830;2023-09-07T00:30:00;21.70;99.90
23755;DHT22;12057;52.042;6.830;2023-09-07T00:35:00;21.60;99.90
23755;DHT22;12057;52.042;6.830;2023-09-07T00:40:01;21.60;99.90
23755;DHT22;12057;52.042;6.830;2023-09-07T00:45:04;21.60;99.90
23755;DHT22;12057;52.042;6.830;2023-09-07T00:50:05;21.60;99.90
23755;DHT22;12057;52.042;6.830;2023-09-07T00:55:07;21.60;99.90
23755;DHT22;12057;52.042;6.830;2023-09-07T01:00:08;21.50;99.90
23755;DHT22;12057;52.042;6.830;2023-09-07T01:05:09;21.40;99.90
23755;DHT22;12057;52.042;6.830;2023-09-07T01:10:11;21.30;99.90
23755;DHT22;12057;52.042;6.830;2023-09-07T01:15:13;21.20;99.90
23755;DHT22;12057;52.042;6.830;2023-09-07T01:20:15;21.10;99.90
23755;DHT22;12057;52.042;6.830;2023-09-07T01:25:17;21.00;99.90
23755;DHT22;12057;52.042;6.830;2023-09-07T01:30:18;20.90;99.90
23755;DHT22;12057;52.042;6.830;2023-09-07T01:35:19;20.90;99.90
23755;DHT22;12057;52.042;6.830;2023-09-07T01:40:22;20.80;99.90
23755;DHT22;12057;52.042;6.830;2023-09-07T01:45:26;20.80;99.90
23755;DHT22;12057;52.042;6.830;2023-09-07T01:50:26;20.70;99.90
23755;DHT22;12057;52.042;6.830;2023-09-07T01:55:27;20.60;99.90
23755;DHT22;12057;52.042;6.830;2023-09-07T02:00:28;20.50;99.90
23755;DHT22;12057;52.042;6.830;2023-09-07T02:05:29;20.50;99.90
23755;DHT22;12057;52.042;6.830;2023-09-07T02:10:30;20.60;99.90
23755;DHT22;12057;52.042;6.830;2023-09-07T02:15:31;20.60;99.90
23755;DHT22;12057;52.042;6.830;2023-09-07T02:20:32;20.50;99.90
23755;DHT22;12057;52.042;6.830;2023-09-07T02:25:33;20.50;99.90
23755;DHT22;12057;52.042;6.830;2023-09-07T02:30:35;20.40;99.90
23755;DHT22;12057;52.042;6.830;2023-09-07T02:35:38;20.40;99.90
23755;DHT22;12057;52.042;6.830;2023-09-07T02:40:43;20.40;99.90
23755;DHT22;12057;52.042;6.830;2023-09-07T02:45:44;20.50;99.90
23755;DHT22;12057;52.042;6.830;2023-09-07T02:50:45;20.40;99.90
23755;DHT22;12057;52.042;6.830;2023-09-07T02:55:49;20.30;99.90
23755;DHT22;12057;52.042;6.830;2023-09-07T03:00:50;20.20;99.90
23755;DHT22;12057;52.042;6.830;2023-09-07T03:05:50;20.20;99.90
23755;DHT22;12057;52.042;6.830;2023-09-07T03:10:51;20.10;99.90
23755;DHT22;12057;52.042;6.830;2023-09-07T03:15:53;20.10;99.90
23755;DHT22;12057;52.042;6.830;2023-09-07T03:20:55;20.10;99.90
23755;DHT22;12057;52.042;6.830;2023-09-07T03:25:57;20.20;99.90
23755;DHT22;12057;52.042;6.830;2023-09-07T03:30:58;20.20;99.90
23755;DHT22;12057;52.042;6.830;2023-09-07T03:36:05;20.20;99.90
23755;DHT22;12057;52.042;6.830;2023-09-07T03:41:06;20.20;99.90
23755;DHT22;12057;52.042;6.830;2023-09-07T03:46:07;20.10;99.90
23755;DHT22;12057;52.042;6.830;2023-09-07T03:51:07;20.10;99.90
23755;DHT22;12057;52.042;6.830;2023-09-07T03:56:08;20.10;99.90
23755;DHT22;12057;52.042;6.830;2023-09-07T04:01:09;20.00;99.90
23755;DHT22;12057;52.042;6.830;2023-09-07T04:06:10;20.00;99.90
23755;DHT22;12057;52.042;6.830;2023-09-07T04:11:10;19.90;99.90
23755;DHT22;12057;52.042;6.830;2023-09-07T04:16:11;19.90;99.90
23755;DHT22;12057;52.042;6.830;2023-09-07T04:21:12;19.90;99.90
23755;DHT22;12057;52.042;6.830;2023-09-07T04:26:13;19.90;99.90
23755;DHT22;12057;52.042;6.830;2023-09-07T04:31:14;19.90;99.90
23755;DHT22;12057;52.042;6.830;2023-09-07T04:36:15;19.80;99.90
23755;DHT22;12057;52.042;6.830;2023-09-07T04:41:16;19.80;99.90
23755;DHT22;12057;52.042;6.830;2023-09-07T04:46:16;19.70;99.90
23755;DHT22;12057;52.042;6.830;2023-09-07T04:51:17;19.70;99.90
23755;DHT22;12057;52.042;6.830;2023-09-07T04:56:18;19.70;99.90
23755;DHT22;12057;52.042;6.830;2023-09-07T05:01:19;19.70;99.90
23755;DHT22;12057;52.042;6.830;2023-09-07T05:06:20;19.60;99.90
23755;DHT22;12057;52.042;6.830;2023-09-07T05:11:23;19.60;99.90
23755;DHT22;12057;52.042;6.830;2023-09-07T05:16:24;19.60;99.90
23755;DHT22;12057;52.042;6.830;2023-09-07T05:21:24;19.60;99.90
23755;DHT22;12057;52.042;6.830;2023-09-07T05:26:25;19.60;99.90
23755;DHT22;12057;52.042;6.830;2023-09-07T05:31:26;19.60;99.90
23755;DHT22;12057;52.042;6.830;2023-09-07T05:36:27;19.60;99.90
23755;DHT22;12057;52.042;6.830;2023-09-07T05:41:28;19.60;99.90
23755;DHT22;12057;52.042;6.830;2023-09-07T05:46:29;19.60;99.90
23755;DHT22;12057;52.042;6.830;2023-09-07T05:51:29;19.60;99.90
23755;DHT22;12057;52.042;6.830;2023-09-07T05:56:30;19.70;99.90
23755;DHT22;12057;52.042;6.830;2023-09-07T06:01:33;19.70;99.90
23755;DHT22;12057;52.042;6.830;2023-09-07T06:06:34;19.80;99.90
23755;DHT22;12057;52.042;6.830;2023-09-07T06:11:35;19.90;99.90
23755;DHT22;12057;52.042;6.830;2023-09-07T06:16:36;20.10;99.90
23755;DHT22;12057;52.042;6.830;2023-09-07T06:21:40;20.20;99.90
23755;DHT22;12057;52.042;6.830;2023-09-07T06:26:41;20.30;99.90
23755;DHT22;12057;52.042;6.830;2023-09-07T06:31:43;20.60;99.90
23755;DHT22;12057;52.042;6.830;2023-09-07T06:36:44;20.90;99.90
23755;DHT22;12057;52.042;6.830;2023-09-07T06:41:54;21.30;99.90
23755;DHT22;12057;52.042;6.830;2023-09-07T06:46:59;21.40;99.90
23755;DHT22;12057;52.042;6.830;2023-09-07T06:52:07;21.80;99.90
23755;DHT22;12057;52.042;6.830;2023-09-07T06:57:13;22.20;99.90
23755;DHT22;12057;52.042;6.830;2023-09-07T07:02:23;22.70;99.90
23755;DHT22;12057;52.042;6.830;2023-09-07T07:07:29;23.00;99.90
23755;DHT22;12057;52.042;6.830;2023-09-07T07:12:44;23.30;99.90
23755;DHT22;12057;52.042;6.830;2023-09-07T07:17:49;23.80;99.90
23755;DHT22;12057;52.042;6.830;2023-09-07T07:22:57;24.20;99.90
23755;DHT22;12057;52.042;6.830;2023-09-07T07:28:01;24.60;99.90
23755;DHT22;12057;52.042;6.830;2023-09-07T07:33:08;24.80;99.90
23755;DHT22;12057;52.042;6.830;2023-09-07T07:38:12;25.10;99.90
23755;DHT22;12057;52.042;6.830;2023-09-07T07:43:17;25.40;99.90
23755;DHT22;12057;52.042;6.830;2023-09-07T07:48:19;25.50;99.90
23755;DHT22;12057;52.042;6.830;2023-09-07T07:53:21;26.00;99.90
23755;DHT22;12057;52.042;6.830;2023-09-07T07:58:36;26.30;99.90
23755;DHT22;12057;52.042;6.830;2023-09-07T08:03:45;26.60;99.90
23755;DHT22;12057;52.042;6.830;2023-09-07T08:09:21;27.20;99.90
23755;DHT22;12057;52.042;6.830;2023-09-07T08:14:25;27.30;99.90
23755;DHT22;12057;52.042;6.830;2023-09-07T08:19:50;27.70;99.90
23755;DHT22;12057;52.042;6.830;2023-09-07T08:24:58;27.80;99.90
23755;DHT22;12057;52.042;6.830;2023-09-07T08:30:08;28.10;99.90
23755;DHT22;12057;52.042;6.830;2023-09-07T08:35:19;28.00;99.90
23755;DHT22;12057;52.042;6.830;2023-09-07T08:40:20;28.20;99.90
23755;DHT22;12057;52.042;6.830;2023-09-07T08:45:26;28.70;99.90
23755;DHT22;12057;52.042;6.830;2023-09-07T08:50:30;28.60;99.70
23755;DHT22;12057;52.042;6.830;2023-09-07T08:55:31;29.10;99.90
23755;DHT22;12057;52.042;6.830;2023-09-07T09:00:33;29.50;99.90
23755;DHT22;12057;52.042;6.830;2023-09-07T09:05:34;29.90;99.90
23755;DHT22;12057;52.042;6.830;2023-09-07T09:10:38;30.00;98.50
23755;DHT22;12057;52.042;6.830;2023-09-07T09:15:40;29.70;97.50
23755;DHT22;12057;52.042;6.830;2023-09-07T09:20:40;30.10;98.00
23755;DHT22;12057;52.042;6.830;2023-09-07T09:25:41;30.40;97.20
23755;DHT22;12057;52.042;6.830;2023-09-07T09:30:42;30.70;97.40
23755;DHT22;12057;52.042;6.830;2023-09-07T09:35:47;30.90;98.00
23755;DHT22;12057;52.042;6.830;2023-09-07T09:40:48;31.30;96.60
23755;DHT22;12057;52.042;6.830;2023-09-07T09:45:50;31.40;95.60
23755;DHT22;12057;52.042;6.830;2023-09-07T09:50:52;31.50;95.90
23755;DHT22;12057;52.042;6.830;2023-09-07T09:55:53;31.40;94.80
23755;DHT22;12057;52.042;6.830;2023-09-07T10:00:56;31.50;95.10
23755;DHT22;12057;52.042;6.830;2023-09-07T10:06:17;31.80;94.20
23755;DHT22;12057;52.042;6.830;2023-09-07T10:11:29;32.00;94.40
23755;DHT22;12057;52.042;6.830;2023-09-07T10:16:51;32.50;94.30
23755;DHT22;12057;52.042;6.830;2023-09-07T10:21:54;32.60;94.00
23755;DHT22;12057;52.042;6.830;2023-09-07T10:27:00;32.80;93.10
23755;DHT22;12057;52.042;6.830;2023-09-07T10:32:05;32.40;92.00
23755;DHT22;12057;52.042;6.830;2023-09-07T10:37:07;32.80;92.10
23755;DHT22;12057;52.042;6.830;2023-09-07T10:42:21;32.40;90.80
23755;DHT22;12057;52.042;6.830;2023-09-07T10:47:22;33.00;90.00
23755;DHT22;12057;52.042;6.830;2023-09-07T10:52:23;32.90;88.00
23755;DHT22;12057;52.042;6.830;2023-09-07T10:57:24;33.00;89.10
23755;DHT22;12057;52.042;6.830;2023-09-07T11:02:25;33.40;89.10
23755;DHT22;12057;52.042;6.830;2023-09-07T11:07:26;33.00;86.00
23755;DHT22;12057;52.042;6.830;2023-09-07T11:12:27;33.30;86.60
23755;DHT22;12057;52.042;6.830;2023-09-07T11:17:27;33.00;87.40
23755;DHT22;12057;52.042;6.830;2023-09-07T11:22:30;32.90;86.70
23755;DHT22;12057;52.042;6.830;2023-09-07T11:27:34;33.20;88.70
23755;DHT22;12057;52.042;6.830;2023-09-07T11:32:35;33.30;88.10
23755;DHT22;12057;52.042;6.830;2023-09-07T11:37:35;33.20;86.20
23755;DHT22;12057;52.042;6.830;2023-09-07T11:42:36;33.60;86.80
23755;DHT22;12057;52.042;6.830;2023-09-07T11:47:37;33.90;85.40
23755;DHT22;12057;52.042;6.830;2023-09-07T11:52:38;33.90;83.50
23755;DHT22;12057;52.042;6.830;2023-09-07T11:57:39;33.50;83.00
23755;DHT22;12057;52.042;6.830;2023-09-07T12:02:41;34.00;83.00
23755;DHT22;12057;52.042;6.830;2023-09-07T12:07:42;34.10;83.40
23755;DHT22;12057;52.042;6.830;2023-09-07T12:12:46;33.90;82.30
23755;DHT22;12057;52.042;6.830;2023-09-07T12:17:47;33.80;81.90
23755;DHT22;12057;52.042;6.830;2023-09-07T12:22:48;33.30;81.40
23755;DHT22;12057;52.042;6.830;2023-09-07T12:27:49;33.40;81.50
23755;DHT22;12057;52.042;6.830;2023-09-07T12:32:51;33.80;80.20
23755;DHT22;12057;52.042;6.830;2023-09-07T12:37:52;33.80;80.10
23755;DHT22;12057;52.042;6.830;2023-09-07T12:42:53;33.30;81.00
23755;DHT22;12057;52.042;6.830;2023-09-07T12:47:54;33.30;81.00
23755;DHT22;12057;52.042;6.830;2023-09-07T12:52:55;33.70;82.10
23755;DHT22;12057;52.042;6.830;2023-09-07T12:57:55;33.80;78.90
23755;DHT22;12057;52.042;6.830;2023-09-07T13:02:56;33.50;80.00
23755;DHT22;12057;52.042;6.830;2023-09-07T13:07:57;33.40;79.80
23755;DHT22;12057;52.042;6.830;2023-09-07T13:12:59;33.60;80.40
23755;DHT22;12057;52.042;6.830;2023-09-07T13:18:00;33.80;81.10
23755;DHT22;12057;52.042;6.830;2023-09-07T13:23:01;33.90;78.90
23755;DHT22;12057;52.042;6.830;2023-09-07T13:28:02;34.30;78.20
23755;DHT22;12057;52.042;6.830;2023-09-07T13:33:03;34.30;77.30
23755;DHT22;12057;52.042;6.830;2023-09-07T13:38:04;34.20;78.10
23755;DHT22;12057;52.042;6.830;2023-09-07T13:43:05;34.00;78.40
23755;DHT22;12057;52.042;6.830;2023-09-07T13:48:06;34.40;78.80
23755;DHT22;12057;52.042;6.830;2023-09-07T13:53:07;34.40;78.80
23755;DHT22;12057;52.042;6.830;2023-09-07T13:58:07;34.60;76.50
23755;DHT22;12057;52.042;6.830;2023-09-07T14:03:08;34.40;78.40
23755;DHT22;12057;52.042;6.830;2023-09-07T14:08:09;34.10;77.50
23755;DHT22;12057;52.042;6.830;2023-09-07T14:13:10;34.00;76.10
23755;DHT22;12057;52.042;6.830;2023-09-07T14:18:11;33.30;75.80
23755;DHT22;12057;52.042;6.830;2023-09-07T14:23:12;33.60;78.80
23755;DHT22;12057;52.042;6.830;2023-09-07T14:28:14;33.90;78.10
23755;DHT22;12057;52.042;6.830;2023-09-07T14:33:15;33.70;77.90
23755;DHT22;12057;52.042;6.830;2023-09-07T14:38:15;33.60;78.30
23755;DHT22;12057;52.042;6.830;2023-09-07T14:43:16;33.40;79.20
23755;DHT22;12057;52.042;6.830;2023-09-07T14:48:17;32.80;78.00
23755;DHT22;12057;52.042;6.830;2023-09-07T14:53:18;32.60;80.60
23755;DHT22;12057;52.042;6.830;2023-09-07T14:58:19;32.80;80.00
23755;DHT22;12057;52.042;6.830;2023-09-07T15:03:20;32.90;80.10
23755;DHT22;12057;52.042;6.830;2023-09-07T15:08:20;32.50;79.80
23755;DHT22;12057;52.042;6.830;2023-09-07T15:13:21;32.20;81.10
23755;DHT22;12057;52.042;6.830;2023-09-07T15:18:22;32.40;78.70
23755;DHT22;12057;52.042;6.830;2023-09-07T15:23:23;32.30;79.50
23755;DHT22;12057;52.042;6.830;2023-09-07T15:28:24;32.50;80.20
23755;DHT22;12057;52.042;6.830;2023-09-07T15:33:25;32.40;80.00
23755;DHT22;12057;52.042;6.830;2023-09-07T15:38:26;32.40;79.70
23755;DHT22;12057;52.042;6.830;2023-09-07T15:43:27;32.40;79.10
23755;DHT22;12057;52.042;6.830;2023-09-07T15:48:32;32.60;80.10
23755;DHT22;12057;52.042;6.830;2023-09-07T15:53:35;32.30;80.10
23755;DHT22;12057;52.042;6.830;2023-09-07T15:58:36;32.00;79.60
23755;DHT22;12057;52.042;6.830;2023-09-07T16:03:37;32.00;81.80
23755;DHT22;12057;52.042;6.830;2023-09-07T16:08:38;31.90;81.30
23755;DHT22;12057;52.042;6.830;2023-09-07T16:13:39;31.50;81.10
23755;DHT22;12057;52.042;6.830;2023-09-07T16:18:43;31.50;82.40
23755;DHT22;12057;52.042;6.830;2023-09-07T16:23:44;31.40;81.30
23755;DHT22;12057;52.042;6.830;2023-09-07T16:28:54;31.40;82.10
23755;DHT22;12057;52.042;6.830;2023-09-07T16:33:55;31.40;82.30
23755;DHT22;12057;52.042;6.830;2023-09-07T16:38:55;31.10;82.70
23755;DHT22;12057;52.042;6.830;2023-09-07T16:43:56;31.20;83.90
23755;DHT22;12057;52.042;6.830;2023-09-07T16:48:57;31.10;83.90
23755;DHT22;12057;52.042;6.830;2023-09-07T16:53:58;30.90;83.50
23755;DHT22;12057;52.042;6.830;2023-09-07T16:58:59;31.00;84.90
23755;DHT22;12057;52.042;6.830;2023-09-07T17:03:59;30.90;85.80
23755;DHT22;12057;52.042;6.830;2023-09-07T17:09:00;30.90;87.00
23755;DHT22;12057;52.042;6.830;2023-09-07T17:14:02;30.80;88.30
23755;DHT22;12057;52.042;6.830;2023-09-07T17:19:03;30.70;88.90
23755;DHT22;12057;52.042;6.830;2023-09-07T17:24:07;30.50;90.00
23755;DHT22;12057;52.042;6.830;2023-09-07T17:29:08;30.40;89.80
23755;DHT22;12057;52.042;6.830;2023-09-07T17:34:08;30.20;90.20
23755;DHT22;12057;52.042;6.830;2023-09-07T17:39:09;30.00;90.30
23755;DHT22;12057;52.042;6.830;2023-09-07T17:44:10;29.80;91.30
23755;DHT22;12057;52.042;6.830;2023-09-07T17:49:11;29.60;91.00
23755;DHT22;12057;52.042;6.830;2023-09-07T17:54:12;29.50;91.60
23755;DHT22;12057;52.042;6.830;2023-09-07T17:59:12;29.40;91.30
23755;DHT22;12057;52.042;6.830;2023-09-07T18:04:13;29.10;91.50
23755;DHT22;12057;52.042;6.830;2023-09-07T18:09:14;29.00;91.60
23755;DHT22;12057;52.042;6.830;2023-09-07T18:14:15;28.80;92.30
23755;DHT22;12057;52.042;6.830;2023-09-07T18:19:15;28.60;92.30
23755;DHT22;12057;52.042;6.830;2023-09-07T18:24:16;28.40;92.20
23755;DHT22;12057;52.042;6.830;2023-09-07T18:29:17;28.30;92.70
23755;DHT22;12057;52.042;6.830;2023-09-07T18:34:18;28.10;92.90
23755;DHT22;12057;52.042;6.830;2023-09-07T18:39:19;28.00;92.70
23755;DHT22;12057;52.042;6.830;2023-09-07T18:44:20;27.80;92.80
23755;DHT22;12057;52.042;6.830;2023-09-07T18:49:21;27.70;93.10
23755;DHT22;12057;52.042;6.830;2023-09-07T18:54:21;27.40;93.20
23755;DHT22;12057;52.042;6.830;2023-09-07T18:59:23;27.20;92.80
23755;DHT22;12057;52.042;6.830;2023-09-07T19:04:24;27.30;93.00
23755;DHT22;12057;52.042;6.830;2023-09-07T19:09:28;27.20;93.10
23755;DHT22;12057;52.042;6.830;2023-09-07T19:14:29;27.10;93.20
23755;DHT22;12057;52.042;6.830;2023-09-07T19:19:30;26.80;93.10
23755;DHT22;12057;52.042;6.830;2023-09-07T19:24:31;26.70;93.20
23755;DHT22;12057;52.042;6.830;2023-09-07T19:29:32;26.60;93.20
23755;DHT22;12057;52.042;6.830;2023-09-07T19:34:34;26.50;93.30
23755;DHT22;12057;52.042;6.830;2023-09-07T19:39:36;26.40;93.40
23755;DHT22;12057;52.042;6.830;2023-09-07T19:44:36;26.40;93.40
23755;DHT22;12057;52.042;6.830;2023-09-07T19:49:37;26.30;93.50
23755;DHT22;12057;52.042;6.830;2023-09-07T19:54:38;26.20;93.30
23755;DHT22;12057;52.042;6.830;2023-09-07T19:59:39;26.10;93.30
23755;DHT22;12057;52.042;6.830;2023-09-07T20:04:40;26.00;93.50
23755;DHT22;12057;52.042;6.830;2023-09-07T20:09:41;25.90;93.70
23755;DHT22;12057;52.042;6.830;2023-09-07T20:14:42;25.90;93.70
23755;DHT22;12057;52.042;6.830;2023-09-07T20:19:43;25.80;93.80
23755;DHT22;12057;52.042;6.830;2023-09-07T20:24:44;25.60;94.00
23755;DHT22;12057;52.042;6.830;2023-09-07T20:29:45;25.60;94.10
23755;DHT22;12057;52.042;6.830;2023-09-07T20:34:46;25.60;94.00
23755;DHT22;12057;52.042;6.830;2023-09-07T20:39:47;25.60;94.00
23755;DHT22;12057;52.042;6.830;2023-09-07T20:44:50;25.60;94.40
23755;DHT22;12057;52.042;6.830;2023-09-07T20:49:51;25.50;94.30
23755;DHT22;12057;52.042;6.830;2023-09-07T20:54:52;25.40;94.40
23755;DHT22;12057;52.042;6.830;2023-09-07T20:59:53;25.40;94.60
23755;DHT22;12057;52.042;6.830;2023-09-07T21:04:54;25.30;94.80
23755;DHT22;12057;52.042;6.830;2023-09-07T21:09:54;25.20;94.90
23755;DHT22;12057;52.042;6.830;2023-09-07T21:14:55;25.10;95.20
23755;DHT22;12057;52.042;6.830;2023-09-07T21:19:56;25.00;94.90
23755;DHT22;12057;52.042;6.830;2023-09-07T21:24:59;24.90;95.10
23755;DHT22;12057;52.042;6.830;2023-09-07T21:30:03;24.80;95.40
23755;DHT22;12057;52.042;6.830;2023-09-07T21:35:04;24.80;95.60
23755;DHT22;12057;52.042;6.830;2023-09-07T21:40:06;24.70;95.80
23755;DHT22;12057;52.042;6.830;2023-09-07T21:45:07;24.60;95.60
23755;DHT22;12057;52.042;6.830;2023-09-07T21:50:08;24.60;96.00
23755;DHT22;12057;52.042;6.830;2023-09-07T21:55:09;24.50;96.30
23755;DHT22;12057;52.042;6.830;2023-09-07T22:00:10;24.50;96.50
23755;DHT22;12057;52.042;6.830;2023-09-07T22:05:12;24.40;96.60
23755;DHT22;12057;52.042;6.830;2023-09-07T22:10:12;24.30;96.50
23755;DHT22;12057;52.042;6.830;2023-09-07T22:15:13;24.20;96.70
23755;DHT22;12057;52.042;6.830;2023-09-07T22:20:14;24.10;96.90
23755;DHT22;12057;52.042;6.830;2023-09-07T22:25:16;24.10;97.10
23755;DHT22;12057;52.042;6.830;2023-09-07T22:30:16;23.90;97.40
23755;DHT22;12057;52.042;6.830;2023-09-07T22:35:17;23.90;97.40
23755;DHT22;12057;52.042;6.830;2023-09-07T22:40:18;23.90;97.00
23755;DHT22;12057;52.042;6.830;2023-09-07T22:45:19;23.90;97.70
23755;DHT22;12057;52.042;6.830;2023-09-07T22:50:20;23.90;97.80
23755;DHT22;12057;52.042;6.830;2023-09-07T22:55:42;23.80;97.60
23755;DHT22;12057;52.042;6.830;2023-09-07T23:00:43;23.70;97.90
23755;DHT22;12057;52.042;6.830;2023-09-07T23:05:44;23.60;98.20
23755;DHT22;12057;52.042;6.830;2023-09-07T23:10:45;23.60;98.20
23755;DHT22;12057;52.042;6.830;2023-09-07T23:15:47;23.50;98.40
23755;DHT22;12057;52.042;6.830;2023-09-07T23:20:49;23.40;98.80
23755;DHT22;12057;52.042;6.830;2023-09-07T23:25:50;23.30;99.00
23755;DHT22;12057;52.042;6.830;2023-09-07T23:30:51;23.20;99.10
23755;DHT22;12057;52.042;6.830;2023-09-07T23:35:55;23.10;99.00
23755;DHT22;12057;52.042;6.830;2023-09-07T23:40:56;23.00;99.00
23755;DHT22;12057;52.042;6.830;2023-09-07T23:45:57;22.80;99.50
23755;DHT22;12057;52.042;6.830;2023-09-07T23:50:57;22.80;99.90
23755;DHT22;12057;52.042;6.830;2023-09-07T23:55:58;22.70;99.90
